Time;durP1;ratioP1;P1;durP2;ratioP2;P2;SDS_P1;SDS_P2;PMS_P1;PMS_P2;Temp;Humidity;BMP_temperature;BMP_pressure;BME280_temperature;BME280_humidity;BME280_pressure;Samples;Min_cycle;Max_cycle;Signal;HPM_P1;HPM_P2
2023/10/08 00:05:29;;;;;;;1.80;1.60;;;;;;;26.84;43.30;100526.41;21083921;28;20107;-64
2023/10/08 00:15:32;;;;;;;1.83;1.50;;;;;;;26.84;43.28;100537.63;21083518;28;20040;-66
2023/10/08 00:25:34;;;;;;;2.50;1.63;;;;;;;26.72;43.45;100517.84;21082008;28;20074;-64
2023/10/08 00:35:42;;;;;;;1.92;1.83;;;;;;;26.83;43.71;100538.81;21081336;28;20453;-64
2023/10/08 00:45:50;;;;;;;1.88;1.50;;;;;;;26.83;43.95;100536.00;21096810;28;20039;-63
2023/10/08 00:55:54;;;;;;;2.00;1.80;;;;;;;26.76;43.81;100529.25;21134580;27;20445;-65
2023/10/08 01:05:57;;;;;;;2.70;1.70;;;;;;;26.79;44.02;100537.00;21131892;28;20131;-63
2023/10/08 01:15:58;;;;;;;2.33;1.50;;;;;;;26.71;44.07;100527.44;21146656;28;20429;-64
2023/10/08 01:26:12;;;;;;;1.70;1.48;;;;;;;26.79;43.81;100557.47;21144554;28;20047;-63
2023/10/08 01:36:14;;;;;;;1.65;1.55;;;;;;;26.80;43.76;100558.28;21161530;28;20039;-63
2023/10/08 01:46:16;;;;;;;3.13;1.75;;;;;;;26.78;43.62;100561.44;21161402;28;20052;-63
2023/10/08 01:56:26;;;;;;;2.63;1.90;;;;;;;26.74;43.68;100554.81;21160657;28;20432;-64
2023/10/08 02:06:27;;;;;;;1.67;1.42;;;;;;;26.75;43.12;100570.50;21159829;28;20047;-63
2023/10/08 02:16:29;;;;;;;1.92;1.73;;;;;;;26.73;43.16;100575.63;21159657;28;20098;-63
2023/10/08 02:26:31;;;;;;;1.83;1.25;;;;;;;26.68;42.48;100578.59;21159701;28;20096;-64
2023/10/08 02:36:32;;;;;;;2.22;1.35;;;;;;;26.61;42.73;100564.22;21159298;28;20036;-63
2023/10/08 02:46:34;;;;;;;1.95;1.50;;;;;;;26.67;42.62;100582.56;21158933;28;20563;-63
2023/10/08 02:56:35;;;;;;;2.78;1.38;;;;;;;26.63;42.42;100564.75;21158401;28;20436;-64
2023/10/08 03:06:38;;;;;;;2.10;1.42;;;;;;;26.59;42.34;100575.78;21171610;28;20069;-63
2023/10/08 03:16:40;;;;;;;1.23;1.10;;;;;;;26.59;42.16;100563.75;21172924;28;20104;-63
2023/10/08 03:26:45;;;;;;;2.40;1.10;;;;;;;26.57;42.30;100557.63;21171752;28;20065;-62
2023/10/08 03:36:49;;;;;;;1.23;1.10;;;;;;;26.56;41.95;100561.59;21170730;28;20093;-63
2023/10/08 03:46:52;;;;;;;2.42;1.00;;;;;;;26.43;42.46;100532.50;21169123;28;20112;-64
2023/10/08 03:56:53;;;;;;;0.85;0.82;;;;;;;26.52;41.83;100552.16;21165566;27;20418;-63
2023/10/08 04:07:01;;;;;;;1.08;0.98;;;;;;;26.47;41.79;100538.31;21161286;28;20043;-64
2023/10/08 04:17:02;;;;;;;1.75;1.13;;;;;;;26.49;41.92;100544.44;21166996;28;20486;-63
2023/10/08 04:27:08;;;;;;;1.20;1.10;;;;;;;26.48;42.05;100531.53;21166552;28;20073;-63
2023/10/08 04:37:12;;;;;;;1.20;1.05;;;;;;;26.45;41.62;100530.22;21160979;28;20573;-63
2023/10/08 04:47:31;;;;;;;1.10;1.00;;;;;;;26.44;41.89;100522.97;21125229;27;20040;-64
2023/10/08 04:57:34;;;;;;;6.22;2.58;;;;;;;26.45;40.91;100518.19;21114920;28;20414;-65
2023/10/08 05:27:56;;;;;;;4.57;1.17;;;;;;;26.30;38.72;100541.91;21129940;28;20471;-65
2023/10/08 05:38:13;;;;;;;2.25;1.00;;;;;;;26.23;37.13;100539.56;21089496;28;20487;-65
2023/10/08 05:48:15;;;;;;;1.75;1.00;;;;;;;26.27;36.86;100540.56;21113264;28;20051;-65
2023/10/08 06:08:38;;;;;;;1.73;0.85;;;;;;;26.19;36.51;100513.31;21147454;28;20038;-66
2023/10/08 06:18:39;;;;;;;1.67;0.70;;;;;;;26.19;37.13;100524.53;21090582;28;20055;-66
2023/10/08 06:28:42;;;;;;;1.73;0.82;;;;;;;26.20;37.76;100498.13;21128966;28;20120;-66
2023/10/08 06:38:48;;;;;;;2.25;1.00;;;;;;;26.17;37.88;100470.75;21090762;28;20044;-66
2023/10/08 06:48:49;;;;;;;1.95;0.85;;;;;;;26.19;38.28;100465.63;21090004;28;20109;-65
2023/10/08 06:58:53;;;;;;;3.17;0.90;;;;;;;26.18;38.78;100474.38;21089401;28;20403;-66
2023/10/08 07:08:55;;;;;;;1.63;0.85;;;;;;;26.18;39.03;100480.00;21089108;28;20036;-66
2023/10/08 07:19:03;;;;;;;3.30;0.73;;;;;;;26.14;39.28;100479.81;21087949;28;20040;-66
2023/10/08 07:29:09;;;;;;;2.28;1.10;;;;;;;26.16;39.34;100477.53;21087818;28;20388;-65
2023/10/08 07:39:25;;;;;;;2.60;0.90;;;;;;;26.15;39.64;100470.25;21086062;28;20036;-65
2023/10/08 07:49:29;;;;;;;1.73;1.10;;;;;;;26.08;39.85;100478.34;21084919;28;20048;-65
2023/10/08 07:59:31;;;;;;;0.80;0.80;;;;;;;26.14;40.04;100485.44;21085005;28;20093;-66
2023/10/08 08:09:37;;;;;;;1.05;0.90;;;;;;;26.14;40.37;100504.25;21084020;28;20097;-66
2023/10/08 08:19:52;;;;;;;1.02;0.90;;;;;;;26.12;40.52;100498.97;21083353;28;20036;-66
2023/10/08 08:30:09;;;;;;;2.65;0.90;;;;;;;26.09;40.60;100489.22;21082411;28;20048;-65
2023/10/08 08:40:21;;;;;;;1.50;0.70;;;;;;;26.09;40.66;100500.44;21081038;28;20040;-65
2023/10/08 08:50:29;;;;;;;0.70;0.70;;;;;;;26.09;40.60;100516.44;21080301;28;20048;-65
2023/10/08 09:00:30;;;;;;;1.08;0.98;;;;;;;25.99;40.74;100499.91;21077297;28;20062;-66
2023/10/08 09:10:51;;;;;;;0.80;0.80;;;;;;;26.05;40.88;100515.44;21078618;28;20044;-66
2023/10/08 09:20:52;;;;;;;1.40;0.77;;;;;;;26.07;40.98;100513.13;21078615;28;20044;-66
2023/10/08 09:30:58;;;;;;;1.08;0.98;;;;;;;26.03;41.49;100495.31;21121664;28;20043;-65
2023/10/08 09:41:03;;;;;;;1.00;0.90;;;;;;;26.02;41.38;100488.84;21077472;28;20043;-65
2023/10/08 09:51:06;;;;;;;1.00;0.90;;;;;;;26.00;41.52;100495.97;21076564;28;20043;-65
2023/10/08 10:01:09;;;;;;;0.80;0.80;;;;;;;25.85;41.67;100481.25;21097214;28;20027;-66
2023/10/08 10:11:11;;;;;;;1.00;0.90;;;;;;;25.73;41.46;100469.81;21168287;28;20044;-66
2023/10/08 10:21:12;;;;;;;1.10;0.90;;;;;;;25.97;41.40;100533.88;21176196;28;20039;-64
2023/10/08 10:31:19;;;;;;;0.90;0.90;;;;;;;25.76;41.26;100519.63;21147909;28;20105;-64
2023/10/08 10:41:21;;;;;;;0.70;0.70;;;;;;;25.94;41.55;100548.56;21128462;28;20112;-66
2023/10/08 10:51:23;;;;;;;0.80;0.80;;;;;;;25.91;41.78;100525.94;21173776;28;20043;-66
2023/10/08 11:01:44;;;;;;;0.98;0.80;;;;;;;25.88;41.94;100532.19;21168323;28;20039;-66
2023/10/08 11:11:54;;;;;;;1.08;0.98;;;;;;;25.89;41.93;100533.84;21171895;27;20043;-65
2023/10/08 11:21:55;;;;;;;1.15;0.90;;;;;;;25.84;41.72;100546.03;21170397;28;20140;-66
2023/10/08 11:31:57;;;;;;;1.63;0.80;;;;;;;25.85;42.05;100561.72;21171143;28;20097;-64
2023/10/08 11:42:06;;;;;;;0.90;0.90;;;;;;;25.84;41.93;100583.31;21148277;28;20547;-66
2023/10/08 11:52:11;;;;;;;1.38;1.02;;;;;;;25.83;42.10;100580.81;21120582;28;20116;-64
2023/10/08 12:02:16;;;;;;;2.53;1.00;;;;;;;25.80;42.28;100587.91;21133677;28;20055;-65
2023/10/08 12:12:22;;;;;;;0.77;0.77;;;;;;;25.76;42.23;100578.50;21131252;28;20479;-64
2023/10/08 12:22:26;;;;;;;1.52;1.10;;;;;;;25.78;42.13;100593.00;21127796;28;20044;-65
2023/10/08 12:32:30;;;;;;;0.93;0.70;;;;;;;25.77;41.98;100602.56;21165013;28;20036;-64
2023/10/08 12:42:31;;;;;;;0.93;0.80;;;;;;;25.72;42.23;100608.28;21162847;28;20048;-65
2023/10/08 12:52:36;;;;;;;0.70;0.70;;;;;;;25.74;42.23;100605.97;21163101;28;20032;-66
2023/10/08 13:02:42;;;;;;;0.60;0.60;;;;;;;25.74;42.32;100600.34;21163226;28;20039;-64
2023/10/08 13:12:49;;;;;;;1.05;0.90;;;;;;;25.66;42.40;100587.16;21132386;28;20048;-65
2023/10/08 13:22:50;;;;;;;1.23;0.70;;;;;;;25.74;42.49;100597.56;21108995;27;20486;-65
2023/10/08 13:32:51;;;;;;;1.02;0.60;;;;;;;25.70;42.50;100596.53;21123327;28;20040;-65
2023/10/08 13:42:53;;;;;;;0.75;0.65;;;;;;;25.75;42.46;100618.00;21103570;28;20044;-65
2023/10/08 13:52:54;;;;;;;0.70;0.70;;;;;;;25.73;42.24;100612.72;21135513;28;20047;-66
2023/10/08 14:02:56;;;;;;;0.60;0.60;;;;;;;25.74;42.49;100622.78;21146568;28;20096;-65
2023/10/08 14:13:01;;;;;;;0.70;0.70;;;;;;;25.70;42.53;100584.50;21118612;28;20047;-64
2023/10/08 14:23:04;;;;;;;1.17;0.80;;;;;;;25.73;42.21;100578.28;21104348;28;20082;-71
2023/10/08 14:33:08;;;;;;;0.73;0.73;;;;;;;25.73;42.36;100567.88;21117835;28;20051;-72
2023/10/08 14:43:11;;;;;;;1.42;0.63;;;;;;;25.73;42.07;100565.09;21147873;28;20043;-73
2023/10/08 14:53:12;;;;;;;1.50;0.80;;;;;;;25.74;41.70;100561.13;21154386;28;20040;-71
2023/10/08 15:03:14;;;;;;;1.55;0.60;;;;;;;25.75;41.99;100568.41;21164262;28;20047;-70
2023/10/08 15:13:18;;;;;;;3.65;0.90;;;;;;;25.76;41.85;100561.69;21172462;28;20044;-69
2023/10/08 15:23:25;;;;;;;3.80;0.70;;;;;;;25.77;41.15;100560.53;21171882;28;20183;-71
2023/10/08 15:33:26;;;;;;;2.63;0.63;;;;;;;25.77;40.84;100549.31;21171563;28;20077;-69
2023/10/08 15:43:28;;;;;;;2.83;0.90;;;;;;;25.77;40.62;100559.69;21170378;28;20036;-68
2023/10/08 15:53:30;;;;;;;1.52;0.70;;;;;;;25.73;40.43;100559.47;21168576;28;20035;-68
2023/10/08 16:03:32;;;;;;;2.20;0.70;;;;;;;25.66;41.32;100552.69;21168307;28;20043;-69
2023/10/08 16:13:33;;;;;;;1.58;0.60;;;;;;;25.73;40.99;100558.66;21167069;28;20036;-68
2023/10/08 16:23:35;;;;;;;0.63;0.60;;;;;;;25.72;40.80;100569.03;21168101;28;20093;-68
2023/10/08 16:33:37;;;;;;;0.80;0.70;;;;;;;25.70;41.09;100560.13;21166720;28;20455;-69
2023/10/08 16:43:39;;;;;;;1.50;0.88;;;;;;;25.69;40.75;100547.25;21164238;28;20482;-69
2023/10/08 16:53:41;;;;;;;3.42;0.90;;;;;;;25.65;40.57;100540.66;21163174;28;20051;-70
2023/10/08 17:03:43;;;;;;;0.68;0.63;;;;;;;25.59;41.03;100519.53;21163737;28;20116;-68
2023/10/08 17:13:44;;;;;;;2.20;0.50;;;;;;;25.63;41.19;100514.94;21163059;28;20378;-69
2023/10/08 17:23:45;;;;;;;1.00;0.60;;;;;;;25.64;40.76;100502.56;21162254;28;20047;-68
2023/10/08 17:33:47;;;;;;;1.00;0.60;;;;;;;25.63;40.67;100500.09;21141318;28;20089;-70
2023/10/08 17:43:48;;;;;;;0.80;0.43;;;;;;;25.62;40.81;100490.88;21095802;28;20044;-71
2023/10/08 17:53:50;;;;;;;1.98;0.68;;;;;;;25.61;39.86;100475.19;21126513;28;20100;-69
2023/10/08 18:03:51;;;;;;;2.67;0.60;;;;;;;25.58;40.07;100467.44;21141928;28;20054;-72
2023/10/08 18:13:53;;;;;;;8.27;0.80;;;;;;;25.34;34.65;100477.09;21121836;28;20047;-72
2023/10/08 18:23:56;;;;;;;1.95;0.45;;;;;;;25.00;32.94;100474.03;21114429;28;20052;-73
2023/10/08 18:33:57;;;;;;;0.75;0.47;;;;;;;25.04;31.91;100480.66;21168239;28;20043;-73
2023/10/08 18:43:59;;;;;;;0.75;0.40;;;;;;;24.93;30.04;100479.28;21172269;28;20051;-73
2023/10/08 18:54:01;;;;;;;18.70;0.93;;;;;;;24.79;30.18;100480.19;21167319;28;20051;-72
2023/10/08 19:04:06;;;;;;;2.25;0.60;;;;;;;24.68;30.05;100478.75;21173729;28;20136;-71
2023/10/08 19:14:07;;;;;;;1.00;0.40;;;;;;;24.41;29.33;100439.72;21173093;28;20471;-71
2023/10/08 19:24:08;;;;;;;1.50;0.50;;;;;;;24.42;28.90;100463.72;21172288;28;20046;-72
2023/10/08 19:34:13;;;;;;;0.80;0.70;;;;;;;24.31;30.56;100458.38;21172042;28;20040;-72
2023/10/08 19:44:15;;;;;;;1.50;0.70;;;;;;;24.18;30.27;100456.44;21169181;28;20040;-72
2023/10/08 19:54:16;;;;;;;0.75;0.50;;;;;;;24.08;29.41;100453.88;21169268;28;20112;-71
2023/10/08 20:04:18;;;;;;;1.60;0.85;;;;;;;23.70;29.62;100392.69;21168193;28;20035;-73
2023/10/08 20:14:19;;;;;;;1.15;0.52;;;;;;;23.78;30.24;100447.84;21167820;28;20080;-70
2023/10/08 20:24:21;;;;;;;1.50;0.45;;;;;;;23.92;29.39;100467.38;21166443;28;20040;-71
2023/10/08 20:34:23;;;;;;;0.93;0.50;;;;;;;23.86;29.49;100467.78;21165956;28;20044;-72
2023/10/08 20:44:33;;;;;;;1.42;0.60;;;;;;;23.84;30.28;100484.88;21165436;28;20043;-71
2023/10/08 20:54:34;;;;;;;1.80;0.50;;;;;;;23.77;30.00;100504.00;21164712;28;20504;-72
2023/10/08 21:04:37;;;;;;;0.82;0.43;;;;;;;23.50;30.04;100482.44;21164250;28;20051;-72
2023/10/08 21:14:41;;;;;;;0.68;0.63;;;;;;;23.57;30.29;100530.34;21164403;28;20044;-72
2023/10/08 21:24:44;;;;;;;1.25;0.70;;;;;;;23.44;30.47;100550.72;21164215;28;20359;-71
2023/10/08 21:34:45;;;;;;;1.35;0.70;;;;;;;23.39;30.45;100531.25;21161774;28;20035;-73
2023/10/08 21:44:49;;;;;;;2.42;0.85;;;;;;;23.47;31.59;100533.34;21161188;28;20073;-72
2023/10/08 21:54:54;;;;;;;0.68;0.50;;;;;;;23.50;30.55;100532.72;21160469;28;20040;-72
2023/10/08 22:04:55;;;;;;;0.82;0.73;;;;;;;23.21;31.59;100555.31;21165500;28;20418;-71
2023/10/08 22:15:05;;;;;;;0.55;0.43;;;;;;;23.29;31.60;100549.84;21179336;28;20088;-73
2023/10/08 22:25:10;;;;;;;0.60;0.60;;;;;;;23.08;30.65;100548.53;21176667;28;20069;-72
2023/10/08 22:35:14;;;;;;;0.60;0.50;;;;;;;23.10;31.55;100540.72;21175133;28;20043;-72
2023/10/08 22:45:16;;;;;;;1.83;0.68;;;;;;;22.88;31.34;100543.28;21174749;28;20486;-72
2023/10/08 22:55:19;;;;;;;0.50;0.47;;;;;;;23.10;32.85;100568.63;21173719;28;20040;-71
2023/10/08 23:05:21;;;;;;;1.00;0.70;;;;;;;23.05;32.09;100560.34;21173416;28;20069;-72
2023/10/08 23:15:26;;;;;;;2.60;0.65;;;;;;;23.11;32.14;100591.78;21171222;28;20386;-70
2023/10/08 23:25:27;;;;;;;2.28;0.73;;;;;;;23.11;32.65;100602.94;21172267;28;20053;-70
2023/10/08 23:35:29;;;;;;;0.80;0.60;;;;;;;22.99;32.16;100608.97;21170605;27;20031;-70
2023/10/08 23:45:30;;;;;;;0.93;0.57;;;;;;;22.93;32.34;100624.16;21170177;28;20483;-71
2023/10/08 23:55:32;;;;;;;1.38;0.85;;;;;;;23.08;33.92;100626.69;21169278;28;20040;-71
